sensor_id;sensor_type;location;lat;lon;timestamp;temperature;humidity
27667;DHT22;15074;50.940;5.282;2023-07-02T00:02:22;16.50;99.90
27667;DHT22;15074;50.940;5.282;2023-07-02T00:04:48;16.60;99.90
27667;DHT22;15074;50.940;5.282;2023-07-02T00:07:13;16.60;99.90
27667;DHT22;15074;50.940;5.282;2023-07-02T00:09:42;16.60;99.90
27667;DHT22;15074;50.940;5.282;2023-07-02T00:12:08;16.60;99.90
27667;DHT22;15074;50.940;5.282;2023-07-02T00:14:34;16.60;99.90
27667;DHT22;15074;50.940;5.282;2023-07-02T00:17:00;16.50;99.90
27667;DHT22;15074;50.940;5.282;2023-07-02T00:19:25;16.60;99.90
27667;DHT22;15074;50.940;5.282;2023-07-02T00:21:51;16.50;99.90
27667;DHT22;15074;50.940;5.282;2023-07-02T00:24:18;16.50;99.90
27667;DHT22;15074;50.940;5.282;2023-07-02T00:26:44;16.40;99.90
27667;DHT22;15074;50.940;5.282;2023-07-02T00:29:10;16.30;99.90
27667;DHT22;15074;50.940;5.282;2023-07-02T00:31:36;16.20;99.90
27667;DHT22;15074;50.940;5.282;2023-07-02T00:34:03;16.30;99.90
27667;DHT22;15074;50.940;5.282;2023-07-02T00:36:30;16.30;99.90
27667;DHT22;15074;50.940;5.282;2023-07-02T00:38:56;16.30;99.90
27667;DHT22;15074;50.940;5.282;2023-07-02T00:41:22;16.20;99.90
27667;DHT22;15074;50.940;5.282;2023-07-02T00:43:48;16.20;99.90
27667;DHT22;15074;50.940;5.282;2023-07-02T00:46:15;16.20;99.90
27667;DHT22;15074;50.940;5.282;2023-07-02T00:48:50;16.20;99.90
27667;DHT22;15074;50.940;5.282;2023-07-02T00:51:18;16.10;99.90
27667;DHT22;15074;50.940;5.282;2023-07-02T00:53:44;16.20;99.90
27667;DHT22;15074;50.940;5.282;2023-07-02T00:56:11;16.20;99.90
27667;DHT22;15074;50.940;5.282;2023-07-02T00:58:39;16.20;99.90
27667;DHT22;15074;50.940;5.282;2023-07-02T01:01:05;16.20;99.90
27667;DHT22;15074;50.940;5.282;2023-07-02T01:03:31;16.10;99.90
27667;DHT22;15074;50.940;5.282;2023-07-02T01:05:59;16.10;99.90
27667;DHT22;15074;50.940;5.282;2023-07-02T01:08:24;16.10;99.90
27667;DHT22;15074;50.940;5.282;2023-07-02T01:10:50;16.20;99.90
27667;DHT22;15074;50.940;5.282;2023-07-02T01:13:19;16.10;99.90
27667;DHT22;15074;50.940;5.282;2023-07-02T01:15:47;16.20;99.90
27667;DHT22;15074;50.940;5.282;2023-07-02T01:18:14;16.20;99.90
27667;DHT22;15074;50.940;5.282;2023-07-02T01:20:42;16.20;99.90
27667;DHT22;15074;50.940;5.282;2023-07-02T01:23:08;16.20;99.90
27667;DHT22;15074;50.940;5.282;2023-07-02T01:25:35;16.30;99.90
27667;DHT22;15074;50.940;5.282;2023-07-02T01:28:02;16.30;99.90
27667;DHT22;15074;50.940;5.282;2023-07-02T01:30:28;16.20;99.90
27667;DHT22;15074;50.940;5.282;2023-07-02T01:32:54;16.20;99.90
27667;DHT22;15074;50.940;5.282;2023-07-02T01:35:19;16.20;99.90
27667;DHT22;15074;50.940;5.282;2023-07-02T01:37:45;16.10;99.90
27667;DHT22;15074;50.940;5.282;2023-07-02T01:40:11;16.10;99.90
27667;DHT22;15074;50.940;5.282;2023-07-02T01:42:37;16.00;99.90
27667;DHT22;15074;50.940;5.282;2023-07-02T01:45:03;16.00;99.90
27667;DHT22;15074;50.940;5.282;2023-07-02T01:47:29;16.00;99.90
27667;DHT22;15074;50.940;5.282;2023-07-02T01:49:54;16.00;99.90
27667;DHT22;15074;50.940;5.282;2023-07-02T01:52:20;15.90;99.90
27667;DHT22;15074;50.940;5.282;2023-07-02T01:54:46;16.00;99.90
27667;DHT22;15074;50.940;5.282;2023-07-02T01:57:12;16.00;99.90
27667;DHT22;15074;50.940;5.282;2023-07-02T01:59:38;16.00;99.90
27667;DHT22;15074;50.940;5.282;2023-07-02T02:02:03;15.90;99.90
27667;DHT22;15074;50.940;5.282;2023-07-02T02:04:29;15.90;99.90
27667;DHT22;15074;50.940;5.282;2023-07-02T02:06:55;15.90;99.90
27667;DHT22;15074;50.940;5.282;2023-07-02T02:09:21;16.00;99.90
27667;DHT22;15074;50.940;5.282;2023-07-02T02:11:50;16.00;99.90
27667;DHT22;15074;50.940;5.282;2023-07-02T02:14:18;16.00;99.90
27667;DHT22;15074;50.940;5.282;2023-07-02T02:16:44;16.00;99.90
27667;DHT22;15074;50.940;5.282;2023-07-02T02:19:11;16.00;99.90
27667;DHT22;15074;50.940;5.282;2023-07-02T02:21:38;16.00;99.90
27667;DHT22;15074;50.940;5.282;2023-07-02T02:24:05;16.00;99.90
27667;DHT22;15074;50.940;5.282;2023-07-02T02:26:32;16.00;99.90
27667;DHT22;15074;50.940;5.282;2023-07-02T02:28:58;16.10;99.90
27667;DHT22;15074;50.940;5.282;2023-07-02T02:31:24;16.10;99.90
27667;DHT22;15074;50.940;5.282;2023-07-02T02:33:49;16.20;99.90
27667;DHT22;15074;50.940;5.282;2023-07-02T02:36:15;16.10;99.90
27667;DHT22;15074;50.940;5.282;2023-07-02T02:38:42;16.10;99.90
27667;DHT22;15074;50.940;5.282;2023-07-02T02:41:08;16.20;99.90
27667;DHT22;15074;50.940;5.282;2023-07-02T02:43:34;16.20;99.90
27667;DHT22;15074;50.940;5.282;2023-07-02T02:46:00;16.20;99.90
27667;DHT22;15074;50.940;5.282;2023-07-02T02:48:25;16.20;99.90
27667;DHT22;15074;50.940;5.282;2023-07-02T02:50:51;16.10;99.90
27667;DHT22;15074;50.940;5.282;2023-07-02T02:53:17;16.10;99.90
27667;DHT22;15074;50.940;5.282;2023-07-02T02:55:42;16.10;99.90
27667;DHT22;15074;50.940;5.282;2023-07-02T02:58:08;16.00;99.90
27667;DHT22;15074;50.940;5.282;2023-07-02T03:00:34;16.10;99.90
27667;DHT22;15074;50.940;5.282;2023-07-02T03:03:00;16.00;99.90
27667;DHT22;15074;50.940;5.282;2023-07-02T03:05:26;16.00;99.90
27667;DHT22;15074;50.940;5.282;2023-07-02T03:07:52;16.00;99.90
27667;DHT22;15074;50.940;5.282;2023-07-02T03:10:17;16.00;99.90
27667;DHT22;15074;50.940;5.282;2023-07-02T03:12:43;16.00;99.90
27667;DHT22;15074;50.940;5.282;2023-07-02T03:15:09;15.90;99.90
27667;DHT22;15074;50.940;5.282;2023-07-02T03:17:35;15.90;99.90
27667;DHT22;15074;50.940;5.282;2023-07-02T03:20:02;15.80;99.90
27667;DHT22;15074;50.940;5.282;2023-07-02T03:22:29;15.80;99.90
27667;DHT22;15074;50.940;5.282;2023-07-02T03:24:55;15.80;99.90
27667;DHT22;15074;50.940;5.282;2023-07-02T03:27:21;15.70;99.90
27667;DHT22;15074;50.940;5.282;2023-07-02T03:29:47;15.70;99.90
27667;DHT22;15074;50.940;5.282;2023-07-02T03:32:12;15.70;99.90
27667;DHT22;15074;50.940;5.282;2023-07-02T03:34:38;15.70;99.90
27667;DHT22;15074;50.940;5.282;2023-07-02T03:37:04;15.70;99.90
27667;DHT22;15074;50.940;5.282;2023-07-02T03:39:29;15.70;99.90
27667;DHT22;15074;50.940;5.282;2023-07-02T03:41:55;15.70;99.90
27667;DHT22;15074;50.940;5.282;2023-07-02T03:44:21;15.80;99.90
27667;DHT22;15074;50.940;5.282;2023-07-02T03:46:47;15.80;99.90
27667;DHT22;15074;50.940;5.282;2023-07-02T03:49:12;15.80;99.90
27667;DHT22;15074;50.940;5.282;2023-07-02T03:51:38;15.80;99.90
27667;DHT22;15074;50.940;5.282;2023-07-02T03:54:04;15.80;99.90
27667;DHT22;15074;50.940;5.282;2023-07-02T03:56:29;15.80;99.90
27667;DHT22;15074;50.940;5.282;2023-07-02T03:58:55;15.90;99.90
27667;DHT22;15074;50.940;5.282;2023-07-02T04:01:21;15.80;99.90
27667;DHT22;15074;50.940;5.282;2023-07-02T04:03:53;15.80;99.90
27667;DHT22;15074;50.940;5.282;2023-07-02T04:06:19;15.70;99.90
27667;DHT22;15074;50.940;5.282;2023-07-02T04:08:45;15.70;99.90
27667;DHT22;15074;50.940;5.282;2023-07-02T04:11:11;15.70;99.90
27667;DHT22;15074;50.940;5.282;2023-07-02T04:13:38;15.80;99.90
27667;DHT22;15074;50.940;5.282;2023-07-02T04:16:04;15.90;99.90
27667;DHT22;15074;50.940;5.282;2023-07-02T04:18:30;15.80;99.90
27667;DHT22;15074;50.940;5.282;2023-07-02T04:20:56;15.90;99.90
27667;DHT22;15074;50.940;5.282;2023-07-02T04:23:22;15.90;99.90
27667;DHT22;15074;50.940;5.282;2023-07-02T04:25:47;15.90;99.90
27667;DHT22;15074;50.940;5.282;2023-07-02T04:28:13;15.90;99.90
27667;DHT22;15074;50.940;5.282;2023-07-02T04:30:39;16.00;99.90
27667;DHT22;15074;50.940;5.282;2023-07-02T04:33:05;16.00;99.90
27667;DHT22;15074;50.940;5.282;2023-07-02T04:35:33;15.90;99.90
27667;DHT22;15074;50.940;5.282;2023-07-02T04:38:00;15.90;99.90
27667;DHT22;15074;50.940;5.282;2023-07-02T04:40:26;15.90;99.90
27667;DHT22;15074;50.940;5.282;2023-07-02T04:42:52;16.10;99.90
27667;DHT22;15074;50.940;5.282;2023-07-02T04:45:24;16.20;99.90
27667;DHT22;15074;50.940;5.282;2023-07-02T04:47:50;16.40;99.90
27667;DHT22;15074;50.940;5.282;2023-07-02T04:50:16;16.70;99.90
27667;DHT22;15074;50.940;5.282;2023-07-02T04:52:42;16.60;99.90
27667;DHT22;15074;50.940;5.282;2023-07-02T04:55:07;16.80;99.90
27667;DHT22;15074;50.940;5.282;2023-07-02T04:57:33;16.90;99.90
27667;DHT22;15074;50.940;5.282;2023-07-02T04:59:59;17.00;99.90
27667;DHT22;15074;50.940;5.282;2023-07-02T05:02:24;17.00;99.90
27667;DHT22;15074;50.940;5.282;2023-07-02T05:04:50;16.70;99.90
27667;DHT22;15074;50.940;5.282;2023-07-02T05:07:16;16.80;99.90
27667;DHT22;15074;50.940;5.282;2023-07-02T05:09:42;16.80;99.90
27667;DHT22;15074;50.940;5.282;2023-07-02T05:12:09;16.80;99.90
27667;DHT22;15074;50.940;5.282;2023-07-02T05:14:34;16.70;99.90
27667;DHT22;15074;50.940;5.282;2023-07-02T05:17:00;16.80;99.90
27667;DHT22;15074;50.940;5.282;2023-07-02T05:19:26;16.90;99.90
27667;DHT22;15074;50.940;5.282;2023-07-02T05:21:51;17.00;99.90
27667;DHT22;15074;50.940;5.282;2023-07-02T05:24:17;17.10;99.90
27667;DHT22;15074;50.940;5.282;2023-07-02T05:26:43;17.20;99.90
27667;DHT22;15074;50.940;5.282;2023-07-02T05:29:09;17.20;99.90
27667;DHT22;15074;50.940;5.282;2023-07-02T05:31:35;17.30;99.90
27667;DHT22;15074;50.940;5.282;2023-07-02T05:34:00;17.30;99.90
27667;DHT22;15074;50.940;5.282;2023-07-02T05:36:26;17.30;99.90
27667;DHT22;15074;50.940;5.282;2023-07-02T05:38:52;16.90;99.90
27667;DHT22;15074;50.940;5.282;2023-07-02T05:41:21;17.00;99.90
27667;DHT22;15074;50.940;5.282;2023-07-02T05:43:47;17.10;99.90
27667;DHT22;15074;50.940;5.282;2023-07-02T05:46:13;17.00;99.90
27667;DHT22;15074;50.940;5.282;2023-07-02T05:48:40;17.30;99.90
27667;DHT22;15074;50.940;5.282;2023-07-02T05:51:06;17.40;99.90
27667;DHT22;15074;50.940;5.282;2023-07-02T05:53:31;17.50;99.90
27667;DHT22;15074;50.940;5.282;2023-07-02T05:55:57;18.40;99.90
27667;DHT22;15074;50.940;5.282;2023-07-02T05:58:23;19.40;99.90
27667;DHT22;15074;50.940;5.282;2023-07-02T06:00:48;19.40;99.90
27667;DHT22;15074;50.940;5.282;2023-07-02T06:03:18;18.90;99.90
27667;DHT22;15074;50.940;5.282;2023-07-02T06:05:50;18.80;99.90
27667;DHT22;15074;50.940;5.282;2023-07-02T06:08:16;18.70;99.90
27667;DHT22;15074;50.940;5.282;2023-07-02T06:10:43;18.50;99.90
27667;DHT22;15074;50.940;5.282;2023-07-02T06:13:09;18.50;99.90
27667;DHT22;15074;50.940;5.282;2023-07-02T06:15:35;18.60;99.90
27667;DHT22;15074;50.940;5.282;2023-07-02T06:18:00;18.40;99.90
27667;DHT22;15074;50.940;5.282;2023-07-02T06:20:26;18.10;99.90
27667;DHT22;15074;50.940;5.282;2023-07-02T06:22:52;17.80;99.90
27667;DHT22;15074;50.940;5.282;2023-07-02T06:25:17;17.80;99.90
27667;DHT22;15074;50.940;5.282;2023-07-02T06:27:43;18.00;99.90
27667;DHT22;15074;50.940;5.282;2023-07-02T06:30:09;18.30;99.90
27667;DHT22;15074;50.940;5.282;2023-07-02T06:32:34;18.90;99.90
27667;DHT22;15074;50.940;5.282;2023-07-02T06:35:00;19.20;99.90
27667;DHT22;15074;50.940;5.282;2023-07-02T06:37:26;19.20;99.90
27667;DHT22;15074;50.940;5.282;2023-07-02T06:39:51;18.90;99.90
27667;DHT22;15074;50.940;5.282;2023-07-02T06:42:17;18.80;99.90
27667;DHT22;15074;50.940;5.282;2023-07-02T06:44:43;18.70;99.90
27667;DHT22;15074;50.940;5.282;2023-07-02T06:47:09;18.90;99.90
27667;DHT22;15074;50.940;5.282;2023-07-02T06:49:36;19.30;99.90
27667;DHT22;15074;50.940;5.282;2023-07-02T06:52:02;20.80;99.90
27667;DHT22;15074;50.940;5.282;2023-07-02T06:54:28;21.90;99.90
27667;DHT22;15074;50.940;5.282;2023-07-02T06:56:53;21.80;99.90
27667;DHT22;15074;50.940;5.282;2023-07-02T06:59:22;21.10;99.90
27667;DHT22;15074;50.940;5.282;2023-07-02T07:01:49;20.40;99.90
27667;DHT22;15074;50.940;5.282;2023-07-02T07:04:15;20.00;99.90
27667;DHT22;15074;50.940;5.282;2023-07-02T07:06:41;19.70;99.90
27667;DHT22;15074;50.940;5.282;2023-07-02T07:09:07;19.80;99.90
27667;DHT22;15074;50.940;5.282;2023-07-02T07:11:33;19.60;99.90
27667;DHT22;15074;50.940;5.282;2023-07-02T07:13:59;19.60;99.90
27667;DHT22;15074;50.940;5.282;2023-07-02T07:16:24;19.80;99.90
27667;DHT22;15074;50.940;5.282;2023-07-02T07:18:50;19.70;99.90
27667;DHT22;15074;50.940;5.282;2023-07-02T07:21:16;19.60;99.90
27667;DHT22;15074;50.940;5.282;2023-07-02T07:23:42;19.40;99.90
27667;DHT22;15074;50.940;5.282;2023-07-02T07:26:07;19.60;99.90
27667;DHT22;15074;50.940;5.282;2023-07-02T07:28:33;19.60;99.90
27667;DHT22;15074;50.940;5.282;2023-07-02T07:30:59;19.60;99.90
27667;DHT22;15074;50.940;5.282;2023-07-02T07:33:24;19.60;99.90
27667;DHT22;15074;50.940;5.282;2023-07-02T07:35:50;19.60;99.90
27667;DHT22;15074;50.940;5.282;2023-07-02T07:38:16;19.50;99.90
27667;DHT22;15074;50.940;5.282;2023-07-02T07:40:43;19.60;99.90
27667;DHT22;15074;50.940;5.282;2023-07-02T07:43:08;19.70;99.90
27667;DHT22;15074;50.940;5.282;2023-07-02T07:45:34;19.90;99.90
27667;DHT22;15074;50.940;5.282;2023-07-02T07:48:00;20.20;99.90
27667;DHT22;15074;50.940;5.282;2023-07-02T07:50:26;20.20;99.90
27667;DHT22;15074;50.940;5.282;2023-07-02T07:52:52;20.00;99.90
27667;DHT22;15074;50.940;5.282;2023-07-02T07:55:18;20.00;99.90
27667;DHT22;15074;50.940;5.282;2023-07-02T07:57:43;19.80;99.90
27667;DHT22;15074;50.940;5.282;2023-07-02T08:00:09;19.60;99.90
27667;DHT22;15074;50.940;5.282;2023-07-02T08:02:35;19.60;99.90
27667;DHT22;15074;50.940;5.282;2023-07-02T08:05:01;19.80;99.90
27667;DHT22;15074;50.940;5.282;2023-07-02T08:07:28;19.90;99.90
27667;DHT22;15074;50.940;5.282;2023-07-02T08:09:54;19.70;99.90
27667;DHT22;15074;50.940;5.282;2023-07-02T08:12:19;19.60;99.90
27667;DHT22;15074;50.940;5.282;2023-07-02T08:14:45;19.70;99.90
27667;DHT22;15074;50.940;5.282;2023-07-02T08:17:11;20.00;99.90
27667;DHT22;15074;50.940;5.282;2023-07-02T08:19:37;20.40;99.90
27667;DHT22;15074;50.940;5.282;2023-07-02T08:22:02;20.70;99.90
27667;DHT22;15074;50.940;5.282;2023-07-02T08:24:29;20.90;99.90
27667;DHT22;15074;50.940;5.282;2023-07-02T08:26:56;21.10;99.90
27667;DHT22;15074;50.940;5.282;2023-07-02T08:29:22;21.10;99.90
27667;DHT22;15074;50.940;5.282;2023-07-02T08:31:47;22.40;99.90
27667;DHT22;15074;50.940;5.282;2023-07-02T08:34:13;23.10;99.90
27667;DHT22;15074;50.940;5.282;2023-07-02T08:36:39;23.20;99.90
27667;DHT22;15074;50.940;5.282;2023-07-02T08:39:04;23.80;99.90
27667;DHT22;15074;50.940;5.282;2023-07-02T08:41:30;25.10;99.90
27667;DHT22;15074;50.940;5.282;2023-07-02T08:44:06;24.80;99.90
27667;DHT22;15074;50.940;5.282;2023-07-02T08:46:35;24.00;99.90
27667;DHT22;15074;50.940;5.282;2023-07-02T08:49:01;23.30;99.90
27667;DHT22;15074;50.940;5.282;2023-07-02T08:51:27;22.80;99.90
27667;DHT22;15074;50.940;5.282;2023-07-02T08:53:53;23.20;99.90
27667;DHT22;15074;50.940;5.282;2023-07-02T08:56:19;24.50;99.90
27667;DHT22;15074;50.940;5.282;2023-07-02T08:58:45;25.90;99.90
27667;DHT22;15074;50.940;5.282;2023-07-02T09:01:12;26.80;99.90
27667;DHT22;15074;50.940;5.282;2023-07-02T09:03:39;25.90;99.90
27667;DHT22;15074;50.940;5.282;2023-07-02T09:06:06;24.70;99.90
27667;DHT22;15074;50.940;5.282;2023-07-02T09:08:32;24.30;99.90
27667;DHT22;15074;50.940;5.282;2023-07-02T09:11:15;25.10;99.90
27667;DHT22;15074;50.940;5.282;2023-07-02T09:16:28;26.90;99.90
27667;DHT22;15074;50.940;5.282;2023-07-02T09:19:01;26.90;99.90
27667;DHT22;15074;50.940;5.282;2023-07-02T09:21:37;27.30;99.70
27667;DHT22;15074;50.940;5.282;2023-07-02T09:24:32;26.70;99.50
27667;DHT22;15074;50.940;5.282;2023-07-02T09:27:00;26.60;99.60
27667;DHT22;15074;50.940;5.282;2023-07-02T09:29:30;27.00;99.20
27667;DHT22;15074;50.940;5.282;2023-07-02T09:31:58;26.70;96.30
27667;DHT22;15074;50.940;5.282;2023-07-02T09:34:31;26.20;96.60
27667;DHT22;15074;50.940;5.282;2023-07-02T09:36:58;25.50;97.10
27667;DHT22;15074;50.940;5.282;2023-07-02T09:39:34;26.30;97.00
27667;DHT22;15074;50.940;5.282;2023-07-02T09:42:02;27.80;95.60
27667;DHT22;15074;50.940;5.282;2023-07-02T09:44:29;28.40;94.10
27667;DHT22;15074;50.940;5.282;2023-07-02T09:52:02;27.00;91.50
27667;DHT22;15074;50.940;5.282;2023-07-02T09:54:28;26.70;95.60
27667;DHT22;15074;50.940;5.282;2023-07-02T09:56:55;26.20;93.30
27667;DHT22;15074;50.940;5.282;2023-07-02T09:59:20;26.10;93.40
27667;DHT22;15074;50.940;5.282;2023-07-02T10:01:47;26.30;93.80
27667;DHT22;15074;50.940;5.282;2023-07-02T10:04:13;25.90;93.70
27667;DHT22;15074;50.940;5.282;2023-07-02T10:06:50;26.00;94.50
27667;DHT22;15074;50.940;5.282;2023-07-02T10:09:17;27.20;93.50
27667;DHT22;15074;50.940;5.282;2023-07-02T10:11:43;28.50;91.90
27667;DHT22;15074;50.940;5.282;2023-07-02T10:14:09;28.70;91.20
27667;DHT22;15074;50.940;5.282;2023-07-02T10:16:47;28.40;90.70
27667;DHT22;15074;50.940;5.282;2023-07-02T10:19:13;27.70;92.30
27667;DHT22;15074;50.940;5.282;2023-07-02T10:21:39;27.10;93.10
27667;DHT22;15074;50.940;5.282;2023-07-02T10:24:16;26.40;93.30
27667;DHT22;15074;50.940;5.282;2023-07-02T10:27:01;25.20;96.10
27667;DHT22;15074;50.940;5.282;2023-07-02T10:29:28;24.60;97.80
27667;DHT22;15074;50.940;5.282;2023-07-02T10:31:57;24.60;99.40
27667;DHT22;15074;50.940;5.282;2023-07-02T10:34:33;24.30;99.00
27667;DHT22;15074;50.940;5.282;2023-07-02T10:37:01;24.60;99.90
27667;DHT22;15074;50.940;5.282;2023-07-02T10:39:31;24.50;99.90
27667;DHT22;15074;50.940;5.282;2023-07-02T10:42:23;24.90;99.90
27667;DHT22;15074;50.940;5.282;2023-07-02T10:44:53;25.00;99.20
27667;DHT22;15074;50.940;5.282;2023-07-02T10:47:19;25.50;99.10
27667;DHT22;15074;50.940;5.282;2023-07-02T10:49:45;25.30;99.10
27667;DHT22;15074;50.940;5.282;2023-07-02T10:52:11;24.70;99.80
27667;DHT22;15074;50.940;5.282;2023-07-02T10:57:07;25.00;99.90
27667;DHT22;15074;50.940;5.282;2023-07-02T10:59:33;25.60;98.40
27667;DHT22;15074;50.940;5.282;2023-07-02T11:01:59;26.20;99.60
27667;DHT22;15074;50.940;5.282;2023-07-02T11:04:28;26.60;98.50
27667;DHT22;15074;50.940;5.282;2023-07-02T11:06:54;26.20;98.60
27667;DHT22;15074;50.940;5.282;2023-07-02T11:09:20;25.60;98.70
27667;DHT22;15074;50.940;5.282;2023-07-02T11:12:01;25.10;99.90
27667;DHT22;15074;50.940;5.282;2023-07-02T11:16:57;25.30;99.90
27667;DHT22;15074;50.940;5.282;2023-07-02T11:19:23;25.40;99.90
27667;DHT22;15074;50.940;5.282;2023-07-02T11:21:54;25.10;99.90
27667;DHT22;15074;50.940;5.282;2023-07-02T11:24:35;25.10;99.90
27667;DHT22;15074;50.940;5.282;2023-07-02T11:27:03;25.00;99.90
27667;DHT22;15074;50.940;5.282;2023-07-02T11:29:30;25.00;99.90
27667;DHT22;15074;50.940;5.282;2023-07-02T11:32:09;24.90;99.30
27667;DHT22;15074;50.940;5.282;2023-07-02T11:34:36;24.50;99.90
27667;DHT22;15074;50.940;5.282;2023-07-02T11:37:02;24.10;99.90
27667;DHT22;15074;50.940;5.282;2023-07-02T11:39:29;24.20;99.90
27667;DHT22;15074;50.940;5.282;2023-07-02T11:41:55;24.10;99.90
27667;DHT22;15074;50.940;5.282;2023-07-02T11:44:21;23.80;99.90
27667;DHT22;15074;50.940;5.282;2023-07-02T11:46:47;23.80;99.90
27667;DHT22;15074;50.940;5.282;2023-07-02T11:49:13;24.40;99.90
27667;DHT22;15074;50.940;5.282;2023-07-02T11:51:40;24.90;99.90
27667;DHT22;15074;50.940;5.282;2023-07-02T11:54:06;25.30;99.90
27667;DHT22;15074;50.940;5.282;2023-07-02T11:56:32;25.00;99.40
27667;DHT22;15074;50.940;5.282;2023-07-02T11:58:58;24.80;99.90
27667;DHT22;15074;50.940;5.282;2023-07-02T12:01:24;25.00;99.90
27667;DHT22;15074;50.940;5.282;2023-07-02T12:03:49;24.70;99.90
27667;DHT22;15074;50.940;5.282;2023-07-02T12:06:15;25.00;99.90
27667;DHT22;15074;50.940;5.282;2023-07-02T12:08:41;24.90;99.90
27667;DHT22;15074;50.940;5.282;2023-07-02T12:11:07;24.50;99.90
27667;DHT22;15074;50.940;5.282;2023-07-02T12:13:33;24.20;99.90
27667;DHT22;15074;50.940;5.282;2023-07-02T12:15:59;24.50;99.90
27667;DHT22;15074;50.940;5.282;2023-07-02T12:18:24;24.70;99.90
27667;DHT22;15074;50.940;5.282;2023-07-02T12:20:50;24.30;99.90
27667;DHT22;15074;50.940;5.282;2023-07-02T12:23:16;23.70;99.90
27667;DHT22;15074;50.940;5.282;2023-07-02T12:25:41;24.10;99.90
27667;DHT22;15074;50.940;5.282;2023-07-02T12:28:07;24.30;99.90
27667;DHT22;15074;50.940;5.282;2023-07-02T12:30:33;24.70;99.90
27667;DHT22;15074;50.940;5.282;2023-07-02T12:32:58;25.10;98.90
27667;DHT22;15074;50.940;5.282;2023-07-02T12:35:24;25.60;99.70
27667;DHT22;15074;50.940;5.282;2023-07-02T12:37:51;25.20;99.40
27667;DHT22;15074;50.940;5.282;2023-07-02T12:40:17;25.60;99.90
27667;DHT22;15074;50.940;5.282;2023-07-02T12:42:44;25.90;99.90
27667;DHT22;15074;50.940;5.282;2023-07-02T12:45:11;26.20;97.40
27667;DHT22;15074;50.940;5.282;2023-07-02T12:47:38;26.80;97.20
27667;DHT22;15074;50.940;5.282;2023-07-02T12:50:04;27.00;97.40
27667;DHT22;15074;50.940;5.282;2023-07-02T12:52:30;27.50;96.90
27667;DHT22;15074;50.940;5.282;2023-07-02T12:54:56;26.90;95.80
27667;DHT22;15074;50.940;5.282;2023-07-02T12:57:22;26.60;97.40
27667;DHT22;15074;50.940;5.282;2023-07-02T12:59:47;26.50;97.80
27667;DHT22;15074;50.940;5.282;2023-07-02T13:02:13;26.20;98.40
27667;DHT22;15074;50.940;5.282;2023-07-02T13:04:39;26.30;97.70
27667;DHT22;15074;50.940;5.282;2023-07-02T13:07:05;26.30;97.10
27667;DHT22;15074;50.940;5.282;2023-07-02T13:09:31;26.60;96.20
27667;DHT22;15074;50.940;5.282;2023-07-02T13:11:57;26.90;95.40
27667;DHT22;15074;50.940;5.282;2023-07-02T13:14:24;26.90;95.60
27667;DHT22;15074;50.940;5.282;2023-07-02T13:16:49;27.30;95.50
27667;DHT22;15074;50.940;5.282;2023-07-02T13:19:16;27.60;94.70
27667;DHT22;15074;50.940;5.282;2023-07-02T13:21:42;27.40;95.30
27667;DHT22;15074;50.940;5.282;2023-07-02T13:24:07;28.20;94.20
27667;DHT22;15074;50.940;5.282;2023-07-02T13:26:33;29.20;92.60
27667;DHT22;15074;50.940;5.282;2023-07-02T13:28:59;29.50;92.00
27667;DHT22;15074;50.940;5.282;2023-07-02T13:31:24;29.60;91.90
27667;DHT22;15074;50.940;5.282;2023-07-02T13:33:50;29.70;91.10
27667;DHT22;15074;50.940;5.282;2023-07-02T13:36:16;28.90;90.80
27667;DHT22;15074;50.940;5.282;2023-07-02T13:38:42;28.60;91.80
27667;DHT22;15074;50.940;5.282;2023-07-02T13:41:08;29.20;91.20
27667;DHT22;15074;50.940;5.282;2023-07-02T13:43:34;29.40;91.30
27667;DHT22;15074;50.940;5.282;2023-07-02T13:46:00;29.10;90.00
27667;DHT22;15074;50.940;5.282;2023-07-02T13:48:25;28.70;90.20
27667;DHT22;15074;50.940;5.282;2023-07-02T13:50:51;28.30;91.20
27667;DHT22;15074;50.940;5.282;2023-07-02T13:53:17;28.30;91.70
27667;DHT22;15074;50.940;5.282;2023-07-02T13:55:42;28.00;92.10
27667;DHT22;15074;50.940;5.282;2023-07-02T13:58:08;28.20;92.70
27667;DHT22;15074;50.940;5.282;2023-07-02T14:00:34;27.90;91.70
27667;DHT22;15074;50.940;5.282;2023-07-02T14:02:59;28.50;91.40
27667;DHT22;15074;50.940;5.282;2023-07-02T14:05:25;27.70;91.70
27667;DHT22;15074;50.940;5.282;2023-07-02T14:07:51;27.70;92.30
27667;DHT22;15074;50.940;5.282;2023-07-02T14:10:17;27.90;91.90
27667;DHT22;15074;50.940;5.282;2023-07-02T14:12:42;27.90;91.00
27667;DHT22;15074;50.940;5.282;2023-07-02T14:15:09;27.80;91.20
27667;DHT22;15074;50.940;5.282;2023-07-02T14:17:35;27.80;91.80
27667;DHT22;15074;50.940;5.282;2023-07-02T14:20:01;27.30;92.30
27667;DHT22;15074;50.940;5.282;2023-07-02T14:22:27;27.00;92.50
27667;DHT22;15074;50.940;5.282;2023-07-02T14:24:53;26.80;93.60
27667;DHT22;15074;50.940;5.282;2023-07-02T14:27:19;26.20;93.50
27667;DHT22;15074;50.940;5.282;2023-07-02T14:29:44;26.10;94.40
27667;DHT22;15074;50.940;5.282;2023-07-02T14:32:13;26.40;95.00
27667;DHT22;15074;50.940;5.282;2023-07-02T14:34:39;27.00;92.60
27667;DHT22;15074;50.940;5.282;2023-07-02T14:37:05;26.70;93.20
27667;DHT22;15074;50.940;5.282;2023-07-02T14:39:30;26.40;93.80
27667;DHT22;15074;50.940;5.282;2023-07-02T14:41:56;25.80;93.40
27667;DHT22;15074;50.940;5.282;2023-07-02T14:44:22;25.00;94.30
27667;DHT22;15074;50.940;5.282;2023-07-02T14:46:48;25.20;95.80
27667;DHT22;15074;50.940;5.282;2023-07-02T14:49:14;25.80;94.60
27667;DHT22;15074;50.940;5.282;2023-07-02T14:51:40;26.40;94.20
27667;DHT22;15074;50.940;5.282;2023-07-02T14:54:06;25.90;93.50
27667;DHT22;15074;50.940;5.282;2023-07-02T14:56:33;25.70;94.40
27667;DHT22;15074;50.940;5.282;2023-07-02T14:59:01;25.60;94.10
27667;DHT22;15074;50.940;5.282;2023-07-02T15:01:27;25.60;93.90
27667;DHT22;15074;50.940;5.282;2023-07-02T15:03:53;25.60;95.40
27667;DHT22;15074;50.940;5.282;2023-07-02T15:06:19;25.20;96.20
27667;DHT22;15074;50.940;5.282;2023-07-02T15:08:45;25.10;96.60
27667;DHT22;15074;50.940;5.282;2023-07-02T15:11:12;25.40;96.80
27667;DHT22;15074;50.940;5.282;2023-07-02T15:13:38;25.70;96.60
27667;DHT22;15074;50.940;5.282;2023-07-02T15:16:05;25.80;96.30
27667;DHT22;15074;50.940;5.282;2023-07-02T15:18:31;25.90;96.20
27667;DHT22;15074;50.940;5.282;2023-07-02T15:20:57;25.40;96.40
27667;DHT22;15074;50.940;5.282;2023-07-02T15:23:23;25.40;98.50
27667;DHT22;15074;50.940;5.282;2023-07-02T15:25:53;25.10;97.90
27667;DHT22;15074;50.940;5.282;2023-07-02T15:28:19;25.20;99.70
27667;DHT22;15074;50.940;5.282;2023-07-02T15:30:56;25.20;97.40
27667;DHT22;15074;50.940;5.282;2023-07-02T15:33:22;25.30;96.80
27667;DHT22;15074;50.940;5.282;2023-07-02T15:35:48;24.80;96.90
27667;DHT22;15074;50.940;5.282;2023-07-02T15:38:15;24.60;97.70
27667;DHT22;15074;50.940;5.282;2023-07-02T15:40:41;24.70;97.70